Eviapetrol II — SY6858 — position and weather

sailwx.info

Track history (hours):
 
Tides and Currents Weather Stations Pressure Air Temp Water Temp Dewpoint Dewpoint Depression Visibility Wind Speed Wind Dir Waves Ship Positions

Eviapetrol II

Last reported at 2015-Jul-01 08:20 UTC. Time now 2015-Jul-01 19:10 UTC.
Position N 38°02' E 023°31'.

Length 78 m; draft 4 m.

Type: Tanker. MMSI: 240493000.

Date/timePositionNaut miles runAvg speedWind from/ knotsBaromVisibWave heightAir tempDewpointWater temp
2015-Jul-01 08:20N 38°02' E 023°31'1 1.3
2015-Jul-01 07:26N 38°02' E 023°32'0 0.0
2015-Jul-01 06:17N 38°02' E 023°32'0 0.0
2015-Jul-01 05:32N 38°02' E 023°32'0 0.0
2015-Jul-01 04:32N 38°02' E 023°32'0 0.0
2015-Jul-01 03:32N 38°02' E 023°32'0 0.0
2015-Jul-01 02:29N 38°02' E 023°32'0 0.0
2015-Jul-01 01:32N 38°02' E 023°32'0 0.0
2015-Jul-01 00:32N 38°02' E 023°32'0 0.0
2015-Jun-30 23:32N 38°02' E 023°32'0 0.0
2015-Jun-30 22:32N 38°02' E 023°32'0 0.0
2015-Jun-30 21:32N 38°02' E 023°32'0 0.0
2015-Jun-30 20:33N 38°02' E 023°32'0 0.0
2015-Jun-30 19:32N 38°02' E 023°32'0 0.0
2015-Jun-30 18:17N 38°02' E 023°32'0 0.0
2015-Jun-30 17:29N 38°02' E 023°32'0 0.0
2015-Jun-30 16:32N 38°02' E 023°32'0 0.1
2015-Jun-30 15:08N 38°02' E 023°32'0 0.0
2015-Jun-30 14:19N 38°02' E 023°32'0 0.0
2015-Jun-30 13:33N 38°02' E 023°32'0 0.0
2015-Jun-30 12:33N 38°02' E 023°32'0 0.0
2015-Jun-30 11:33N 38°02' E 023°32'5 5.0
2015-Jun-30 10:33N 37°57' E 023°34'8 8.0
2015-Jun-30 09:33N 37°50' E 023°40'1010.3
2015-Jun-30 08:33N 37°41' E 023°45'133 2.7
2015-Jun-28 07:20N 37°41' E 026°34'75 2.4
2015-Jun-26 23:25N 36°32' E 027°11'31 9.4
2015-Jun-26 20:10N 36°46' E 026°37'7 9.9
2015-Jun-26 19:29N 36°49' E 026°30'1010.1
2015-Jun-26 18:33N 36°54' E 026°20'10 9.7
2015-Jun-26 17:33N 36°59' E 026°09'10 9.7
2015-Jun-26 16:33N 37°04' E 025°59'10 9.6
2015-Jun-26 15:30N 37°09' E 025°48'9 9.7
2015-Jun-26 14:33N 37°13' E 025°37'9 9.1
2015-Jun-26 13:34N 37°15' E 025°26'9 9.0
2015-Jun-26 12:33N 37°16' E 025°15'9 8.9
2015-Jun-26 11:34N 37°18' E 025°04'9 8.8
2015-Jun-26 10:33N 37°20' E 024°53'55 9.1
2015-Jun-26 04:34N 37°38' E 023°48'9 9.1
2015-Jun-26 03:34N 37°44' E 023°39'9 9.1
2015-Jun-26 02:33N 37°50' E 023°30'8 8.2
2015-Jun-26 01:32N 37°56' E 023°24'9 0.5
2015-Jun-25 08:27N 38°02' E 023°32'0 0.2
2015-Jun-25 07:31N 38°02' E 023°33'2 2.5
2015-Jun-25 06:32N 38°02' E 023°36'0 0.0
2015-Jun-25 05:32N 38°02' E 023°36'0 0.0
2015-Jun-25 04:20N 38°02' E 023°36'0 0.0
2015-Jun-25 03:32N 38°02' E 023°36'0 0.0
2015-Jun-25 02:33N 38°02' E 023°36'0 0.0
2015-Jun-25 01:33N 38°02' E 023°36'0 0.0
2015-Jun-25 00:33N 38°02' E 023°36'0 0.0
2015-Jun-24 23:33N 38°02' E 023°36'0 0.0
2015-Jun-24 22:28N 38°02' E 023°36'0 0.0
2015-Jun-24 21:32N 38°02' E 023°36'0 0.0
2015-Jun-24 20:33N 38°02' E 023°36'0 0.0
2015-Jun-24 19:33N 38°02' E 023°36'1 0.7
2015-Jun-24 18:28N 38°02' E 023°35'7 7.4
2015-Jun-24 17:33N 37°60' E 023°27'8 8.2
2015-Jun-24 16:33N 37°57' E 023°17'  
2015-Jun-22 07:26N 38°08' E 022°35'27 8.0
2015-Jun-22 04:08N 37°55' E 023°04'1 0.1
2015-Jun-21 13:32N 37°55' E 023°06'9 9.4
2015-Jun-21 12:33N 37°53' E 023°17'10 9.8
2015-Jun-21 11:33N 37°53' E 023°30'4 3.8
2015-Jun-21 10:33N 37°55' E 023°33'0 0.0
2015-Jun-21 09:33N 37°55' E 023°33'0 0.0
2015-Jun-21 08:33N 37°55' E 023°33'  
Track history (hours):
 
Tides and Currents Weather Stations Pressure Air Temp Water Temp Dewpoint Dewpoint Depression Visibility Wind Speed Wind Dir Waves Ship Positions

Eviapetrol II

Last reported at 2015-Jul-01 08:20 UTC. Time now 2015-Jul-01 19:10 UTC.
Position N 38°02' E 023°31'.

Length 78 m; draft 4 m.

Type: Tanker. MMSI: 240493000.

Date/timePositionNaut miles runAvg speedWind from/ knotsBaromVisibWave heightAir tempDewpointWater temp
2015-Jul-01 08:20N 38°02' E 023°31'1 1.3
2015-Jul-01 07:26N 38°02' E 023°32'0 0.0
2015-Jul-01 06:17N 38°02' E 023°32'0 0.0
2015-Jul-01 05:32N 38°02' E 023°32'0 0.0
2015-Jul-01 04:32N 38°02' E 023°32'0 0.0
2015-Jul-01 03:32N 38°02' E 023°32'0 0.0
2015-Jul-01 02:29N 38°02' E 023°32'0 0.0
2015-Jul-01 01:32N 38°02' E 023°32'0 0.0
2015-Jul-01 00:32N 38°02' E 023°32'0 0.0
2015-Jun-30 23:32N 38°02' E 023°32'0 0.0
2015-Jun-30 22:32N 38°02' E 023°32'0 0.0
2015-Jun-30 21:32N 38°02' E 023°32'0 0.0
2015-Jun-30 20:33N 38°02' E 023°32'0 0.0
2015-Jun-30 19:32N 38°02' E 023°32'0 0.0
2015-Jun-30 18:17N 38°02' E 023°32'0 0.0
2015-Jun-30 17:29N 38°02' E 023°32'0 0.0
2015-Jun-30 16:32N 38°02' E 023°32'0 0.1
2015-Jun-30 15:08N 38°02' E 023°32'0 0.0
2015-Jun-30 14:19N 38°02' E 023°32'0 0.0
2015-Jun-30 13:33N 38°02' E 023°32'0 0.0
2015-Jun-30 12:33N 38°02' E 023°32'0 0.0
2015-Jun-30 11:33N 38°02' E 023°32'5 5.0
2015-Jun-30 10:33N 37°57' E 023°34'8 8.0
2015-Jun-30 09:33N 37°50' E 023°40'1010.3
2015-Jun-30 08:33N 37°41' E 023°45'133 2.7
2015-Jun-28 07:20N 37°41' E 026°34'75 2.4
2015-Jun-26 23:25N 36°32' E 027°11'31 9.4
2015-Jun-26 20:10N 36°46' E 026°37'7 9.9
2015-Jun-26 19:29N 36°49' E 026°30'1010.1
2015-Jun-26 18:33N 36°54' E 026°20'10 9.7
2015-Jun-26 17:33N 36°59' E 026°09'10 9.7
2015-Jun-26 16:33N 37°04' E 025°59'10 9.6
2015-Jun-26 15:30N 37°09' E 025°48'9 9.7
2015-Jun-26 14:33N 37°13' E 025°37'9 9.1
2015-Jun-26 13:34N 37°15' E 025°26'9 9.0
2015-Jun-26 12:33N 37°16' E 025°15'9 8.9
2015-Jun-26 11:34N 37°18' E 025°04'9 8.8
2015-Jun-26 10:33N 37°20' E 024°53'55 9.1
2015-Jun-26 04:34N 37°38' E 023°48'9 9.1
2015-Jun-26 03:34N 37°44' E 023°39'9 9.1
2015-Jun-26 02:33N 37°50' E 023°30'8 8.2
2015-Jun-26 01:32N 37°56' E 023°24'9 0.5
2015-Jun-25 08:27N 38°02' E 023°32'0 0.2
2015-Jun-25 07:31N 38°02' E 023°33'2 2.5
2015-Jun-25 06:32N 38°02' E 023°36'0 0.0
2015-Jun-25 05:32N 38°02' E 023°36'0 0.0
2015-Jun-25 04:20N 38°02' E 023°36'0 0.0
2015-Jun-25 03:32N 38°02' E 023°36'0 0.0
2015-Jun-25 02:33N 38°02' E 023°36'0 0.0
2015-Jun-25 01:33N 38°02' E 023°36'0 0.0
2015-Jun-25 00:33N 38°02' E 023°36'0 0.0
2015-Jun-24 23:33N 38°02' E 023°36'0 0.0
2015-Jun-24 22:28N 38°02' E 023°36'0 0.0
2015-Jun-24 21:32N 38°02' E 023°36'0 0.0
2015-Jun-24 20:33N 38°02' E 023°36'0 0.0
2015-Jun-24 19:33N 38°02' E 023°36'1 0.7
2015-Jun-24 18:28N 38°02' E 023°35'7 7.4
2015-Jun-24 17:33N 37°60' E 023°27'8 8.2
2015-Jun-24 16:33N 37°57' E 023°17'  
2015-Jun-22 07:26N 38°08' E 022°35'27 8.0
2015-Jun-22 04:08N 37°55' E 023°04'1 0.1
2015-Jun-21 13:32N 37°55' E 023°06'9 9.4
2015-Jun-21 12:33N 37°53' E 023°17'10 9.8
2015-Jun-21 11:33N 37°53' E 023°30'4 3.8
2015-Jun-21 10:33N 37°55' E 023°33'0 0.0
2015-Jun-21 09:33N 37°55' E 023°33'0 0.0
2015-Jun-21 08:33N 37°55' E 023°33'  

Dump ship's entire track history